Airfield :
LOGIN :

Register | Disclaimer

   EN    FR    IT 

 










Legend :    VFR   Marginal VFR   IFR   Intensive IFR   Very Intensive IFR
Visi :
Ceiling :
>= 8 km
>= 3000ft
5 to 8 km
1000 to 3000 ft
1500m to 5 km
500 to 1000 ft
800 to 1500m
200 to 500 ft
< 800m
< 200 ft
Symbols :   Thunderstorms  Fog  Heavy snow  Heavy precipitations  Wind > 20 kt
SIGMETs :     Misc.  Thunderstorms  Icing  Turbulence  Mountain Waves  Volcanic Ashes






- Airport Elevation : 2265 ft
- IATA code : CZL


DABC - Mohamed Boudiaf Int. Constantine

CURRENT METAR :
  • 251930Z 18003KT 120V240 8000 -RA FEW014 SCT026 BKN100 17/15 Q1017

EXPIRED METARs :
  • 251900Z 23008KT 8000 -RA SCT026 BKN100 17/15 Q1017
  • 251830Z 24009KT 8000 -RA SCT026 BKN100 17/15 Q1017
  • 251800Z 26007KT 240V300 8000 -RA SCT026 BKN100 18/14 Q1017
  • 251730Z 26007KT 230V300 8000 -RA SCT026 BKN100 18/13 Q1017
  • 251700Z 26015KT 8000 SCT026 BKN100 19/13 Q1016

TAF TAF DABC
Valid from the 25 at 18:00 until the 26 at 18:00 UTC


251700Z 2518/2618 33008KT 8000 -RA SCT023 BKN033
PROB40
TEMPO 2518/2524 26015KT FEW026CB
TEMPO 2518/2606 4000 -SHRA



MET'MAP, your aeronautical weather chart ! - Copyright ORBIFLY December 2007 - Disclaimer

ORBIFLY MET'MAP TEAM :

Programming & Development : Alexandra Zaïnal
Original concept : Baudouin d'Aumeries
Technical & hardware support : Manuel Goepfert
Assistance : Marc-Olivier Méhu




SOURCES & CREDITS :

   NOAA